Time;durP1;ratioP1;P1;durP2;ratioP2;P2;SDS_P1;SDS_P2;PMS_P1;PMS_P2;Temp;Humidity;BMP_temperature;BMP_pressure;BME280_temperature;BME280_humidity;BME280_pressure;Samples;Min_cycle;Max_cycle;Signal;HPM_P1;HPM_P2
2023/08/31 00:00:43;;;;;;;2.15;2.03;;;21.60;63.10;;;;;;5047195;28;20270;-79
2023/08/31 00:03:10;;;;;;;2.10;1.92;;;21.50;63.00;;;;;;5047372;28;20193;-79
2023/08/31 00:05:40;;;;;;;2.33;1.85;;;21.60;63.20;;;;;;5030645;28;20201;-79
2023/08/31 00:08:07;;;;;;;2.08;1.80;;;21.50;63.10;;;;;;5047039;28;20292;-79
2023/08/31 00:10:35;;;;;;;2.05;1.80;;;21.50;63.10;;;;;;5047110;28;20224;-79
2023/08/31 00:13:02;;;;;;;1.80;1.70;;;21.50;63.10;;;;;;5031015;28;20221;-79
2023/08/31 00:15:32;;;;;;;2.10;1.90;;;21.50;63.10;;;;;;5030749;28;20236;-80
2023/08/31 00:18:01;;;;;;;2.75;2.17;;;21.50;63.10;;;;;;5046850;28;20648;-79
2023/08/31 00:20:30;;;;;;;2.28;2.00;;;21.50;63.20;;;;;;5030149;28;20225;-79
2023/08/31 00:22:57;;;;;;;2.50;1.80;;;21.50;63.20;;;;;;5030634;28;20212;-80
2023/08/31 00:25:24;;;;;;;2.17;1.90;;;21.50;63.20;;;;;;5030530;28;20201;-79
2023/08/31 00:27:53;;;;;;;1.77;1.67;;;21.50;63.20;;;;;;5048066;28;20228;-80
2023/08/31 00:30:20;;;;;;;2.10;1.90;;;21.50;63.20;;;;;;5030518;28;20640;-79
2023/08/31 00:32:48;;;;;;;1.67;1.58;;;21.50;63.20;;;;;;5047796;28;20636;-80
2023/08/31 00:35:17;;;;;;;1.88;1.73;;;21.50;63.20;;;;;;5030955;28;20212;-79
2023/08/31 00:37:44;;;;;;;1.90;1.80;;;21.50;63.20;;;;;;5030308;28;20200;-79
2023/08/31 00:40:14;;;;;;;2.30;1.70;;;21.50;63.20;;;;;;5014234;28;20255;-80
2023/08/31 00:42:41;;;;;;;1.83;1.70;;;21.50;63.20;;;;;;5013430;28;20291;-80
2023/08/31 00:45:11;;;;;;;1.77;1.67;;;21.50;63.20;;;;;;5030056;28;20686;-80
2023/08/31 00:47:38;;;;;;;1.80;1.70;;;21.50;63.20;;;;;;5046371;28;20201;-79
2023/08/31 00:50:07;;;;;;;2.38;1.70;;;21.40;63.10;;;;;;5029806;28;20200;-80
2023/08/31 00:52:36;;;;;;;1.83;1.63;;;21.40;63.20;;;;;;5046376;28;20302;-79
2023/08/31 00:55:05;;;;;;;1.80;1.70;;;21.40;63.20;;;;;;5029671;28;20197;-79
2023/08/31 00:57:31;;;;;;;1.70;1.60;;;21.40;63.20;;;;;;5030842;28;20207;-79
2023/08/31 00:59:59;;;;;;;1.60;1.50;;;21.40;63.20;;;;;;5045386;28;20279;-80
2023/08/31 01:02:31;;;;;;;3.38;1.77;;;21.40;63.20;;;;;;5046064;28;20583;-80
2023/08/31 01:05:02;;;;;;;1.80;1.70;;;21.40;63.20;;;;;;5030690;28;20193;-80
2023/08/31 01:07:33;;;;;;;2.00;1.80;;;21.40;63.30;;;;;;5013106;28;20192;-80
2023/08/31 01:10:06;;;;;;;1.70;1.60;;;21.40;63.30;;;;;;5029480;28;20211;-80
2023/08/31 01:12:36;;;;;;;2.35;2.03;;;21.40;63.40;;;;;;5030647;28;20209;-80
2023/08/31 01:15:07;;;;;;;1.50;1.40;;;21.40;63.40;;;;;;5030239;28;20193;-80
2023/08/31 01:17:38;;;;;;;1.80;1.70;;;21.40;63.20;;;;;;5012932;28;20193;-79
2023/08/31 01:20:08;;;;;;;2.00;1.80;;;21.40;63.30;;;;;;5013008;28;20726;-79
2023/08/31 01:22:41;;;;;;;1.70;1.60;;;21.30;63.20;;;;;;5030305;28;20192;-80
2023/08/31 01:25:10;;;;;;;1.80;1.70;;;21.40;63.40;;;;;;5046871;28;20252;-79
2023/08/31 01:27:37;;;;;;;1.60;1.50;;;21.30;63.30;;;;;;5029880;28;20283;-79
2023/08/31 01:30:05;;;;;;;1.65;1.55;;;21.30;63.20;;;;;;5029041;28;20693;-79
2023/08/31 01:32:32;;;;;;;1.50;1.40;;;21.30;63.30;;;;;;5029162;28;20652;-80
2023/08/31 01:35:01;;;;;;;1.50;1.40;;;21.30;63.40;;;;;;5046215;28;20196;-80
2023/08/31 01:37:32;;;;;;;2.13;1.70;;;21.30;63.40;;;;;;5029353;28;20243;-80
2023/08/31 01:40:02;;;;;;;1.80;1.60;;;21.30;63.40;;;;;;5029746;28;20691;-80
2023/08/31 01:42:30;;;;;;;1.70;1.60;;;21.30;63.50;;;;;;5012535;28;20591;-80
2023/08/31 01:44:57;;;;;;;1.48;1.38;;;21.20;63.50;;;;;;5046374;28;20196;-79
2023/08/31 01:47:25;;;;;;;2.05;1.60;;;21.20;63.50;;;;;;5045389;28;20211;-80
2023/08/31 01:49:52;;;;;;;2.03;1.70;;;21.20;63.60;;;;;;5029243;28;20197;-79
2023/08/31 01:52:20;;;;;;;2.85;1.70;;;21.20;63.50;;;;;;5045937;28;20251;-79
2023/08/31 01:54:46;;;;;;;2.05;1.60;;;21.20;63.50;;;;;;5045589;28;20196;-80
2023/08/31 01:57:14;;;;;;;1.70;1.60;;;21.20;63.60;;;;;;5013093;28;20251;-80
2023/08/31 02:00:01;;;;;;;1.60;1.50;;;21.20;63.60;;;;;;5014338;28;20254;-80
2023/08/31 02:02:28;;;;;;;1.48;1.38;;;21.10;63.50;;;;;;5045680;28;20626;-80
2023/08/31 02:04:55;;;;;;;1.58;1.48;;;21.20;63.70;;;;;;5029197;28;20265;-80
2023/08/31 02:07:25;;;;;;;1.60;1.50;;;21.10;63.50;;;;;;5030102;28;20657;-80
2023/08/31 02:09:52;;;;;;;1.50;1.40;;;21.10;63.60;;;;;;5045426;28;20215;-80
2023/08/31 02:12:19;;;;;;;1.58;1.48;;;21.10;63.50;;;;;;5048315;28;20229;-79
2023/08/31 02:14:46;;;;;;;1.67;1.58;;;21.10;63.50;;;;;;5049365;28;20200;-80
2023/08/31 02:17:15;;;;;;;1.50;1.40;;;21.10;63.60;;;;;;5049221;28;20642;-79
2023/08/31 02:19:41;;;;;;;1.65;1.55;;;21.10;63.60;;;;;;5032953;28;20239;-78
2023/08/31 02:22:08;;;;;;;2.08;1.58;;;21.10;63.70;;;;;;5016131;28;20221;-80
2023/08/31 02:24:36;;;;;;;1.83;1.40;;;21.10;63.70;;;;;;5032679;28;20204;-80
2023/08/31 02:27:03;;;;;;;1.58;1.40;;;21.10;63.70;;;;;;5016328;28;20683;-79
2023/08/31 02:29:30;;;;;;;1.55;1.45;;;21.10;63.70;;;;;;5033537;28;20656;-80
2023/08/31 02:31:57;;;;;;;1.70;1.60;;;21.10;63.80;;;;;;5048858;28;20216;-80
2023/08/31 02:34:26;;;;;;;1.40;1.30;;;21.00;63.60;;;;;;5032442;28;20231;-79
2023/08/31 02:36:53;;;;;;;1.58;1.48;;;21.10;63.70;;;;;;5049174;28;20239;-78
2023/08/31 02:39:20;;;;;;;1.45;1.35;;;21.10;63.80;;;;;;5016428;28;20193;-79
2023/08/31 02:41:48;;;;;;;1.75;1.65;;;21.00;63.70;;;;;;5032119;28;20213;-78
2023/08/31 02:44:15;;;;;;;1.50;1.40;;;21.00;63.70;;;;;;5015540;28;20743;-79
2023/08/31 02:46:42;;;;;;;1.85;1.50;;;21.00;63.70;;;;;;5015775;28;20208;-78
2023/08/31 02:49:09;;;;;;;1.63;1.48;;;21.00;63.70;;;;;;5031887;28;20197;-79
2023/08/31 02:51:37;;;;;;;1.58;1.48;;;21.00;63.80;;;;;;5031698;28;20213;-78
2023/08/31 02:54:05;;;;;;;1.55;1.45;;;21.10;63.90;;;;;;5015387;28;20213;-79
2023/08/31 02:56:32;;;;;;;2.08;1.42;;;21.00;63.80;;;;;;5015828;28;20197;-78
2023/08/31 02:58:59;;;;;;;1.42;1.33;;;21.00;63.70;;;;;;5048426;28;20570;-79
2023/08/31 03:01:26;;;;;;;1.70;1.60;;;21.00;63.80;;;;;;5032089;28;20220;-79
2023/08/31 03:03:54;;;;;;;1.50;1.40;;;21.00;63.80;;;;;;5048436;28;20663;-79
2023/08/31 03:06:22;;;;;;;1.50;1.40;;;21.00;63.80;;;;;;5048637;28;20243;-78
2023/08/31 03:08:51;;;;;;;1.63;1.52;;;21.00;63.80;;;;;;5015111;28;20207;-79
2023/08/31 03:11:18;;;;;;;1.73;1.30;;;21.00;63.80;;;;;;5017079;28;20207;-79
2023/08/31 03:13:45;;;;;;;1.60;1.50;;;21.00;63.80;;;;;;5051173;28;20594;-77
2023/08/31 03:16:13;;;;;;;1.80;1.35;;;21.00;63.80;;;;;;5050755;28;20196;-78
2023/08/31 03:18:40;;;;;;;1.40;1.25;;;21.00;63.80;;;;;;5032104;28;20192;-78
2023/08/31 03:21:07;;;;;;;1.65;1.40;;;21.10;63.90;;;;;;5031467;28;20221;-78
2023/08/31 03:23:35;;;;;;;1.60;1.50;;;21.10;63.80;;;;;;5047456;28;20261;-78
2023/08/31 03:26:09;;;;;;;1.45;1.35;;;21.10;63.70;;;;;;5031989;28;20251;-79
2023/08/31 03:28:38;;;;;;;1.45;1.35;;;21.10;63.50;;;;;;5048184;28;20201;-79
2023/08/31 03:31:05;;;;;;;1.45;1.35;;;21.10;63.50;;;;;;5031006;28;20699;-78
2023/08/31 03:33:32;;;;;;;1.50;1.40;;;21.10;63.40;;;;;;5047853;28;20308;-78
2023/08/31 03:36:02;;;;;;;1.63;1.50;;;21.20;63.50;;;;;;5047760;28;20197;-78
2023/08/31 03:38:30;;;;;;;1.30;1.20;;;21.20;63.30;;;;;;5031636;28;20196;-78
2023/08/31 03:40:57;;;;;;;1.67;1.58;;;21.20;63.10;;;;;;5047730;28;20216;-78
2023/08/31 03:43:26;;;;;;;1.45;1.35;;;21.20;63.00;;;;;;5031245;28;20189;-78
2023/08/31 03:45:56;;;;;;;1.40;1.30;;;21.30;63.10;;;;;;5031672;28;20288;-79
2023/08/31 03:48:24;;;;;;;1.45;1.35;;;21.30;63.00;;;;;;5031020;28;20204;-77
2023/08/31 03:50:52;;;;;;;1.60;1.48;;;21.30;63.00;;;;;;5047538;28;20311;-78
2023/08/31 03:53:19;;;;;;;1.40;1.30;;;21.30;62.90;;;;;;5047528;28;20221;-79
2023/08/31 03:55:46;;;;;;;1.50;1.40;;;21.30;62.90;;;;;;5047308;28;20211;-78
2023/08/31 03:58:15;;;;;;;1.30;1.20;;;21.30;62.90;;;;;;5014689;28;20707;-79
2023/08/31 04:00:50;;;;;;;1.55;1.42;;;21.20;62.80;;;;;;5047496;28;20225;-79
2023/08/31 04:03:18;;;;;;;1.52;1.42;;;21.30;62.90;;;;;;5047397;28;20204;-77
2023/08/31 04:05:45;;;;;;;1.50;1.40;;;21.30;62.80;;;;;;5047508;28;20207;-78
2023/08/31 04:08:23;;;;;;;;;;;;;;;;;;;;;
2023/08/31 04:11:13;;;;;;;1.55;1.45;;;21.30;62.80;;;;;;5054147;28;20241;-80
2023/08/31 04:13:41;;;;;;;1.30;1.20;;;21.30;62.70;;;;;;5037908;28;20222;-80
2023/08/31 04:16:10;;;;;;;1.42;1.30;;;21.30;62.60;;;;;;5023454;28;20195;-80
2023/08/31 04:18:37;;;;;;;2.15;1.48;;;21.30;62.60;;;;;;5038184;28;20200;-80
2023/08/31 04:21:04;;;;;;;1.38;1.27;;;21.30;62.60;;;;;;5055110;28;20561;-80
2023/08/31 04:23:32;;;;;;;1.50;1.40;;;21.30;62.50;;;;;;5037867;28;20286;-80
2023/08/31 04:25:59;;;;;;;1.30;1.20;;;21.40;62.60;;;;;;5037914;28;20238;-78
2023/08/31 04:28:26;;;;;;;1.40;1.30;;;21.40;62.50;;;;;;5038168;28;20283;-79
2023/08/31 04:30:54;;;;;;;1.40;1.30;;;21.40;62.50;;;;;;5038132;28;20219;-79
2023/08/31 04:33:22;;;;;;;1.33;1.25;;;21.40;62.50;;;;;;5037933;28;20219;-79
2023/08/31 04:35:50;;;;;;;1.27;1.20;;;21.40;62.40;;;;;;5037727;28;20199;-78
2023/08/31 04:38:18;;;;;;;1.67;1.30;;;21.40;62.40;;;;;;5054094;28;20206;-78
2023/08/31 04:40:45;;;;;;;1.33;1.23;;;21.30;62.30;;;;;;5054019;28;20247;-78
2023/08/31 04:43:12;;;;;;;1.45;1.35;;;21.40;62.40;;;;;;5021090;28;20249;-78
2023/08/31 04:45:39;;;;;;;1.40;1.30;;;21.40;62.40;;;;;;5036754;28;20199;-79
2023/08/31 04:48:07;;;;;;;1.50;1.40;;;21.40;62.40;;;;;;5036691;28;20211;-79
2023/08/31 04:50:35;;;;;;;1.40;1.30;;;21.30;62.30;;;;;;5037105;28;20305;-80
2023/08/31 04:53:04;;;;;;;3.28;1.50;;;21.30;62.30;;;;;;5038497;28;20199;-79
2023/08/31 04:55:31;;;;;;;1.30;1.20;;;21.30;62.30;;;;;;5037966;28;20195;-80
2023/08/31 04:57:58;;;;;;;1.20;1.20;;;21.30;62.10;;;;;;5037746;28;20203;-80
2023/08/31 05:00:25;;;;;;;2.10;1.30;;;21.30;62.20;;;;;;5041703;28;20542;-81
2023/08/31 05:02:52;;;;;;;2.70;1.80;;;21.30;62.20;;;;;;5050995;28;20211;-81
2023/08/31 05:05:20;;;;;;;2.35;1.88;;;21.30;62.20;;;;;;5050635;28;20226;-81
2023/08/31 05:07:48;;;;;;;5.78;1.65;;;21.30;62.50;;;;;;5048680;28;20195;-81
2023/08/31 05:10:16;;;;;;;1.77;1.67;;;21.30;62.50;;;;;;5039798;28;20285;-81
2023/08/31 05:12:43;;;;;;;1.67;1.58;;;21.20;62.40;;;;;;5039788;28;20202;-81
2023/08/31 05:15:11;;;;;;;2.03;1.63;;;21.30;62.50;;;;;;5038829;28;20211;-81
2023/08/31 05:17:38;;;;;;;2.85;1.65;;;21.30;62.50;;;;;;5038876;28;20191;-81
2023/08/31 05:20:08;;;;;;;2.65;1.60;;;21.20;62.40;;;;;;5038694;28;20210;-80
2023/08/31 05:22:38;;;;;;;1.42;1.25;;;21.20;62.70;;;;;;5039154;28;20221;-80
2023/08/31 05:25:07;;;;;;;1.80;1.65;;;21.20;62.60;;;;;;5037846;28;20582;-80
2023/08/31 05:27:35;;;;;;;1.40;1.30;;;21.20;62.50;;;;;;5036771;28;20195;-80
2023/08/31 05:30:02;;;;;;;1.75;1.63;;;21.20;62.30;;;;;;5036077;28;20210;-81
2023/08/31 05:32:29;;;;;;;3.05;1.70;;;21.20;62.00;;;;;;5053638;28;20227;-80
2023/08/31 05:34:58;;;;;;;1.67;1.48;;;21.20;61.70;;;;;;5053881;28;20215;-80
2023/08/31 05:37:25;;;;;;;1.60;1.50;;;21.20;61.70;;;;;;5054091;28;20650;-80
2023/08/31 05:39:52;;;;;;;1.88;1.60;;;21.20;61.60;;;;;;5037499;28;20203;-80
2023/08/31 05:42:21;;;;;;;1.88;1.50;;;21.20;61.90;;;;;;5037407;28;20302;-80
2023/08/31 05:44:47;;;;;;;1.98;1.50;;;21.10;61.60;;;;;;5037479;28;20188;-81
2023/08/31 05:47:14;;;;;;;2.50;1.70;;;21.20;61.80;;;;;;5036608;28;20222;-81
2023/08/31 05:49:41;;;;;;;1.50;1.40;;;21.20;61.80;;;;;;5058820;28;20207;-81
2023/08/31 05:52:08;;;;;;;2.97;1.67;;;21.20;61.40;;;;;;5041925;28;20627;-81
2023/08/31 05:54:35;;;;;;;1.65;1.55;;;21.20;60.10;;;;;;5042130;28;20219;-81
2023/08/31 05:57:03;;;;;;;4.57;1.70;;;21.20;59.90;;;;;;5042241;28;20195;-82
2023/08/31 05:59:32;;;;;;;2.72;1.50;;;21.20;59.80;;;;;;5041514;28;20249;-82
2023/08/31 06:01:59;;;;;;;2.33;1.80;;;21.20;59.80;;;;;;5047184;28;20215;-82
2023/08/31 06:04:27;;;;;;;2.05;1.60;;;21.20;59.50;;;;;;5044517;28;20223;-82
2023/08/31 06:06:53;;;;;;;3.10;1.80;;;21.20;59.20;;;;;;5040047;28;20207;-82
2023/08/31 06:09:21;;;;;;;2.08;1.67;;;21.20;58.90;;;;;;5040464;28;20211;-81
2023/08/31 06:11:48;;;;;;;2.55;1.70;;;21.10;58.80;;;;;;5039714;28;20219;-81
2023/08/31 06:14:15;;;;;;;2.20;1.90;;;21.20;58.90;;;;;;5039282;28;20219;-82
2023/08/31 06:16:44;;;;;;;2.65;2.00;;;21.20;58.70;;;;;;5056334;28;20199;-80
2023/08/31 06:19:15;;;;;;;2.13;1.40;;;21.20;58.80;;;;;;5040496;28;20249;-80
2023/08/31 06:21:41;;;;;;;1.65;1.42;;;21.20;59.00;;;;;;5049408;28;20223;-81
2023/08/31 06:24:10;;;;;;;1.92;1.60;;;21.30;59.00;;;;;;5038108;28;20195;-81
2023/08/31 06:26:37;;;;;;;1.55;1.42;;;21.40;58.90;;;;;;5038688;28;20204;-81
2023/08/31 06:29:05;;;;;;;1.85;1.42;;;21.40;58.90;;;;;;5038293;28;20200;-81
2023/08/31 06:31:31;;;;;;;2.55;1.77;;;21.50;58.90;;;;;;5040077;28;20273;-81
2023/08/31 06:34:00;;;;;;;1.80;1.40;;;21.50;58.80;;;;;;5040139;28;20345;-81
2023/08/31 06:36:27;;;;;;;1.98;1.60;;;21.50;58.70;;;;;;5040647;28;20302;-81
2023/08/31 06:38:54;;;;;;;2.05;1.63;;;21.60;58.70;;;;;;5039771;28;20226;-81
2023/08/31 06:41:22;;;;;;;3.53;1.80;;;21.60;58.70;;;;;;5039726;28;20219;-81
2023/08/31 06:43:48;;;;;;;2.38;1.60;;;21.70;58.70;;;;;;5040060;28;20655;-81
2023/08/31 06:46:15;;;;;;;2.13;1.52;;;21.70;58.60;;;;;;5039650;28;20567;-81
2023/08/31 06:48:42;;;;;;;1.80;1.50;;;21.70;58.40;;;;;;5039359;28;20214;-81
2023/08/31 06:51:11;;;;;;;2.50;1.40;;;21.80;58.40;;;;;;5039328;28;20302;-81
2023/08/31 06:53:38;;;;;;;1.77;1.50;;;21.80;58.20;;;;;;5039197;28;20661;-81
2023/08/31 06:56:05;;;;;;;1.92;1.42;;;21.80;58.20;;;;;;5039332;28;20223;-81
2023/08/31 06:58:32;;;;;;;2.88;1.60;;;21.90;58.00;;;;;;5038451;28;20205;-81
2023/08/31 07:00:59;;;;;;;1.70;1.40;;;22.00;57.90;;;;;;5039249;28;20247;-81
2023/08/31 07:03:26;;;;;;;2.78;1.85;;;22.00;57.80;;;;;;5039666;28;20191;-81
2023/08/31 07:05:54;;;;;;;1.52;1.42;;;22.00;57.70;;;;;;5041059;28;20196;-81
2023/08/31 07:08:22;;;;;;;2.67;1.85;;;22.10;57.70;;;;;;5040469;28;20214;-81
2023/08/31 07:10:51;;;;;;;2.03;1.60;;;22.20;57.60;;;;;;5039882;28;20255;-82
2023/08/31 07:13:18;;;;;;;2.88;1.45;;;22.20;57.30;;;;;;5039573;28;20298;-84
2023/08/31 07:15:45;;;;;;;2.95;1.70;;;22.40;57.10;;;;;;5039229;28;20256;-84
2023/08/31 07:18:16;;;;;;;1.42;1.33;;;22.60;56.70;;;;;;5043791;28;20199;-84
2023/08/31 07:20:46;;;;;;;1.60;1.42;;;22.70;56.20;;;;;;5040847;28;20226;-83
2023/08/31 07:23:13;;;;;;;2.72;1.50;;;22.90;56.10;;;;;;5039168;28;20227;-83
2023/08/31 07:25:43;;;;;;;1.55;1.45;;;22.90;55.90;;;;;;5055523;28;20278;-83
2023/08/31 07:28:10;;;;;;;2.22;1.50;;;23.00;55.80;;;;;;5038730;28;20301;-83
2023/08/31 07:30:38;;;;;;;1.58;1.40;;;23.00;55.70;;;;;;5038904;28;20223;-83
2023/08/31 07:33:06;;;;;;;1.35;1.20;;;23.10;55.70;;;;;;5038648;28;20183;-83
2023/08/31 07:35:33;;;;;;;1.70;1.60;;;23.00;55.50;;;;;;5038462;28;20219;-83
2023/08/31 07:38:00;;;;;;;1.58;1.48;;;23.10;55.70;;;;;;5039122;28;20562;-83
2023/08/31 07:40:28;;;;;;;2.80;1.60;;;23.10;55.70;;;;;;5055384;28;20219;-83
2023/08/31 07:42:57;;;;;;;1.63;1.50;;;23.10;55.60;;;;;;5045439;28;20575;-83
2023/08/31 07:45:24;;;;;;;1.90;1.40;;;23.10;55.40;;;;;;5061177;28;20666;-83
2023/08/31 07:47:51;;;;;;;1.55;1.40;;;23.10;55.50;;;;;;5060351;28;20191;-83
2023/08/31 07:50:19;;;;;;;2.53;1.60;;;23.20;55.30;;;;;;5044270;28;20230;-83
2023/08/31 07:52:46;;;;;;;1.40;1.27;;;23.30;55.10;;;;;;5044578;28;20200;-83
2023/08/31 07:55:13;;;;;;;1.77;1.50;;;23.40;54.90;;;;;;5043424;28;20223;-83
2023/08/31 07:57:40;;;;;;;2.70;1.38;;;23.50;54.60;;;;;;5043874;28;20225;-83
2023/08/31 08:00:10;;;;;;;2.38;1.58;;;23.60;54.40;;;;;;5041061;28;20203;-83
2023/08/31 08:02:41;;;;;;;4.05;1.60;;;23.80;54.10;;;;;;5041345;28;20286;-83
2023/08/31 08:05:09;;;;;;;2.13;1.40;;;24.00;53.70;;;;;;5041381;28;20249;-83
2023/08/31 08:07:36;;;;;;;2.88;1.60;;;24.10;53.40;;;;;;5041349;28;20207;-83
2023/08/31 08:10:04;;;;;;;1.65;1.55;;;24.30;52.90;;;;;;5050062;28;20271;-83
2023/08/31 08:12:37;;;;;;;1.67;1.25;;;24.40;52.60;;;;;;5041596;28;20200;-83
2023/08/31 08:15:06;;;;;;;1.75;1.50;;;24.50;52.40;;;;;;5043416;28;20203;-84
2023/08/31 08:17:35;;;;;;;2.10;1.33;;;24.70;52.10;;;;;;5059880;28;20234;-84
2023/08/31 08:20:03;;;;;;;1.60;1.50;;;24.80;51.70;;;;;;5042587;28;20724;-84
2023/08/31 08:22:30;;;;;;;2.03;1.60;;;24.90;51.40;;;;;;5059695;28;20266;-84
2023/08/31 08:24:57;;;;;;;1.60;1.50;;;25.10;51.20;;;;;;5043009;28;20266;-84
2023/08/31 08:27:25;;;;;;;2.67;1.75;;;25.10;50.90;;;;;;5042259;28;20226;-84
2023/08/31 08:29:52;;;;;;;1.60;1.50;;;25.20;50.80;;;;;;5042467;28;20282;-84
2023/08/31 08:32:19;;;;;;;1.50;1.40;;;25.30;50.60;;;;;;5026064;28;20226;-84
2023/08/31 08:34:47;;;;;;;2.05;1.50;;;25.30;50.40;;;;;;5041215;28;20211;-84
2023/08/31 08:37:14;;;;;;;1.83;1.45;;;25.40;50.30;;;;;;5041549;28;20202;-84
2023/08/31 08:39:41;;;;;;;1.60;1.50;;;25.40;50.10;;;;;;5041411;28;20206;-84
2023/08/31 08:42:08;;;;;;;1.70;1.60;;;25.40;50.00;;;;;;5058256;28;20239;-84
2023/08/31 08:44:35;;;;;;;1.88;1.58;;;25.40;50.00;;;;;;5041414;28;20240;-84
2023/08/31 08:47:03;;;;;;;2.20;1.25;;;25.40;50.00;;;;;;5042091;28;20253;-84
2023/08/31 08:49:30;;;;;;;1.50;1.40;;;25.40;50.00;;;;;;5041347;28;20199;-83
2023/08/31 08:51:59;;;;;;;2.33;1.60;;;25.50;50.00;;;;;;5040959;28;20211;-83
2023/08/31 08:54:26;;;;;;;1.73;1.50;;;25.40;50.00;;;;;;5038894;28;20537;-84
2023/08/31 08:56:54;;;;;;;2.15;1.58;;;25.40;49.80;;;;;;5037942;28;20616;-84
2023/08/31 08:59:21;;;;;;;2.25;1.50;;;25.40;49.80;;;;;;5037212;28;20646;-83
2023/08/31 09:01:48;;;;;;;2.03;1.52;;;25.40;49.80;;;;;;5037290;28;20280;-83
2023/08/31 09:04:15;;;;;;;2.63;1.60;;;25.30;49.90;;;;;;5037435;28;20198;-84
2023/08/31 09:06:42;;;;;;;1.90;1.50;;;25.20;49.90;;;;;;5037495;28;20542;-84
2023/08/31 09:09:10;;;;;;;1.73;1.60;;;25.30;49.90;;;;;;5037505;28;20209;-84
2023/08/31 09:11:38;;;;;;;2.25;1.52;;;25.30;49.90;;;;;;5037175;28;20277;-84
2023/08/31 09:14:15;;;;;;;2.10;1.42;;;25.30;49.90;;;;;;5037873;28;20202;-84
2023/08/31 09:16:44;;;;;;;2.55;1.70;;;25.30;49.80;;;;;;5039645;28;20191;-84
2023/08/31 09:19:19;;;;;;;1.70;1.60;;;25.40;49.60;;;;;;5058097;28;20214;-84
2023/08/31 09:21:45;;;;;;;1.75;1.45;;;25.40;49.80;;;;;;5039914;28;20689;-83
2023/08/31 09:24:14;;;;;;;1.52;1.42;;;25.30;49.70;;;;;;5039365;28;20563;-83
2023/08/31 09:26:44;;;;;;;2.85;2.03;;;25.20;49.80;;;;;;5020643;28;20194;-83
2023/08/31 09:29:10;;;;;;;2.90;1.77;;;25.10;49.90;;;;;;5053871;28;20191;-84
2023/08/31 09:31:37;;;;;;;2.85;1.77;;;25.00;49.80;;;;;;5036850;28;20302;-84
2023/08/31 09:34:04;;;;;;;4.10;1.65;;;25.00;49.80;;;;;;5036660;28;20194;-83
2023/08/31 09:36:31;;;;;;;2.35;1.63;;;25.10;49.70;;;;;;5020860;28;20214;-84
2023/08/31 09:38:59;;;;;;;2.67;1.70;;;25.20;49.40;;;;;;5044610;28;20199;-83
2023/08/31 09:41:27;;;;;;;1.83;1.50;;;25.30;49.20;;;;;;5038755;28;20219;-84
2023/08/31 09:43:54;;;;;;;1.70;1.60;;;25.30;49.10;;;;;;5036160;28;20218;-84
2023/08/31 09:46:22;;;;;;;2.05;1.60;;;25.30;49.10;;;;;;5052743;28;20197;-84
2023/08/31 09:48:49;;;;;;;3.63;1.48;;;25.30;49.20;;;;;;5052294;28;20285;-83
2023/08/31 09:51:19;;;;;;;2.80;1.80;;;25.20;49.30;;;;;;5035863;28;20310;-83
2023/08/31 09:53:46;;;;;;;3.53;1.75;;;25.10;49.70;;;;;;5036138;28;20195;-83
2023/08/31 09:56:14;;;;;;;2.15;1.83;;;25.00;49.70;;;;;;5036441;28;20237;-83
2023/08/31 09:58:42;;;;;;;2.45;1.73;;;25.00;49.70;;;;;;5021452;28;20187;-83
2023/08/31 10:01:09;;;;;;;2.38;1.70;;;25.00;49.80;;;;;;5053638;28;20223;-83
2023/08/31 10:03:36;;;;;;;3.80;2.00;;;24.90;49.70;;;;;;5036501;28;20206;-83
2023/08/31 10:06:03;;;;;;;2.53;1.70;;;24.90;49.70;;;;;;5020422;28;20213;-83
2023/08/31 10:11:00;;;;;;;1.83;1.50;;;24.90;49.70;;;;;;5093021;28;20221;-81
2023/08/31 10:13:27;;;;;;;1.60;1.50;;;25.00;49.80;;;;;;5094772;28;20186;-82
2023/08/31 10:15:56;;;;;;;1.95;1.67;;;25.10;49.80;;;;;;5093728;28;20241;-82
2023/08/31 10:18:23;;;;;;;1.88;1.55;;;25.10;49.70;;;;;;5093556;28;20254;-82
2023/08/31 10:20:50;;;;;;;1.70;1.60;;;25.10;49.60;;;;;;5093813;28;20253;-82
2023/08/31 10:23:18;;;;;;;3.03;1.83;;;25.10;49.30;;;;;;5094433;28;20201;-82
2023/08/31 10:26:04;;;;;;;2.40;1.73;;;25.10;49.30;;;;;;5093322;28;20193;-82
2023/08/31 10:28:31;;;;;;;2.05;1.60;;;25.10;49.50;;;;;;5094089;28;20289;-82
2023/08/31 10:31:03;;;;;;;2.50;1.80;;;25.10;49.10;;;;;;5093322;28;20242;-81
2023/08/31 10:33:32;;;;;;;1.90;1.70;;;25.00;49.00;;;;;;5096671;28;20643;-81
2023/08/31 10:36:00;;;;;;;1.80;1.70;;;25.00;49.30;;;;;;5096814;28;20228;-81
2023/08/31 10:38:28;;;;;;;1.92;1.60;;;25.00;49.00;;;;;;5096704;28;20186;-81
2023/08/31 10:41:25;;;;;;;2.55;2.00;;;25.00;49.10;;;;;;5096790;28;20225;-82
2023/08/31 10:43:53;;;;;;;2.38;1.60;;;24.90;49.10;;;;;;5091405;28;20648;-82
2023/08/31 10:46:29;;;;;;;2.15;1.70;;;24.90;49.20;;;;;;5095892;28;20701;-82
2023/08/31 10:48:57;;;;;;;2.08;1.60;;;24.80;49.40;;;;;;5096402;28;20197;-82
2023/08/31 10:51:25;;;;;;;3.25;1.92;;;24.80;49.60;;;;;;5096431;28;20224;-82
2023/08/31 10:53:52;;;;;;;1.77;1.63;;;24.70;49.80;;;;;;5095850;28;20193;-82
2023/08/31 10:56:19;;;;;;;1.92;1.70;;;24.70;49.50;;;;;;5096831;28;20210;-82
2023/08/31 10:59:04;;;;;;;2.83;1.60;;;24.60;49.40;;;;;;5096860;28;20228;-81
2023/08/31 11:01:55;;;;;;;3.33;1.80;;;24.70;50.30;;;;;;5096188;28;20245;-81
2023/08/31 11:04:23;;;;;;;2.00;1.80;;;24.60;50.20;;;;;;5096472;28;20575;-81
2023/08/31 11:06:50;;;;;;;2.10;1.65;;;24.70;50.10;;;;;;5096806;28;20194;-81
2023/08/31 11:09:21;;;;;;;2.53;1.88;;;24.70;50.00;;;;;;5095974;28;20209;-81
2023/08/31 11:11:48;;;;;;;2.95;1.90;;;24.70;50.00;;;;;;5096439;28;20213;-82
2023/08/31 11:14:16;;;;;;;1.63;1.52;;;24.70;49.80;;;;;;5095740;28;20289;-81
2023/08/31 11:16:44;;;;;;;1.92;1.67;;;24.70;49.70;;;;;;5095618;28;20679;-81
2023/08/31 11:19:12;;;;;;;2.28;1.83;;;24.70;49.70;;;;;;5098331;28;20205;-82
2023/08/31 11:21:39;;;;;;;2.80;1.90;;;24.80;50.00;;;;;;5100464;28;20587;-82
2023/08/31 11:24:08;;;;;;;2.00;1.80;;;24.70;49.90;;;;;;5101254;28;20289;-81
2023/08/31 11:26:35;;;;;;;2.20;1.70;;;24.70;49.80;;;;;;5097922;28;20201;-82
2023/08/31 11:29:02;;;;;;;2.45;1.83;;;24.70;49.80;;;;;;5098301;28;20591;-80
2023/08/31 11:31:29;;;;;;;2.10;1.48;;;24.70;49.70;;;;;;5097063;28;20221;-80
2023/08/31 11:33:56;;;;;;;1.70;1.60;;;24.70;49.50;;;;;;5097314;28;20630;-82
2023/08/31 11:36:25;;;;;;;3.70;2.00;;;24.70;50.10;;;;;;5097879;28;20660;-82
2023/08/31 11:38:52;;;;;;;1.92;1.70;;;24.70;49.50;;;;;;5097008;28;20212;-81
2023/08/31 11:41:19;;;;;;;1.90;1.50;;;24.70;49.50;;;;;;5080789;28;20226;-82
2023/08/31 11:43:47;;;;;;;1.95;1.70;;;24.80;49.60;;;;;;5097039;28;20228;-81
2023/08/31 11:46:14;;;;;;;2.15;1.80;;;24.80;49.50;;;;;;5097073;28;20710;-81
2023/08/31 11:48:41;;;;;;;2.33;1.67;;;24.80;49.40;;;;;;5097730;28;20251;-82
2023/08/31 11:51:08;;;;;;;2.58;1.70;;;24.80;49.50;;;;;;5098210;28;20250;-82
2023/08/31 11:53:37;;;;;;;2.90;1.60;;;24.80;49.60;;;;;;5097557;28;20288;-82
2023/08/31 11:56:04;;;;;;;2.03;1.60;;;24.80;49.60;;;;;;5097480;28;20699;-82
2023/08/31 11:58:31;;;;;;;2.08;1.70;;;24.80;49.60;;;;;;5097775;28;20197;-81
2023/08/31 12:00:59;;;;;;;3.55;1.90;;;24.80;49.60;;;;;;5097895;28;20256;-82
2023/08/31 12:03:28;;;;;;;1.90;1.70;;;24.80;49.60;;;;;;5094375;28;20667;-82
2023/08/31 12:05:57;;;;;;;2.42;1.95;;;24.80;49.60;;;;;;5094368;28;20186;-81
2023/08/31 12:08:27;;;;;;;2.25;1.90;;;24.70;49.70;;;;;;5094826;28;20194;-82
2023/08/31 12:10:56;;;;;;;2.33;1.90;;;24.70;49.60;;;;;;5079213;28;20225;-82
2023/08/31 12:13:26;;;;;;;2.33;1.67;;;24.70;49.60;;;;;;5098315;28;20205;-82
2023/08/31 12:15:54;;;;;;;2.08;1.70;;;24.70;49.60;;;;;;5098573;28;20242;-81
2023/08/31 12:18:21;;;;;;;2.25;1.90;;;24.60;49.60;;;;;;5099072;28;20722;-82
2023/08/31 12:20:51;;;;;;;2.38;1.83;;;24.70;49.80;;;;;;5098424;28;20225;-82
2023/08/31 12:23:19;;;;;;;2.15;1.63;;;24.70;49.80;;;;;;5098723;28;20204;-82
2023/08/31 12:25:49;;;;;;;2.78;2.00;;;24.70;49.80;;;;;;5099695;28;20194;-82
2023/08/31 12:28:19;;;;;;;2.65;1.80;;;24.70;49.80;;;;;;5099560;28;20200;-82
2023/08/31 12:30:48;;;;;;;2.25;1.70;;;24.70;49.80;;;;;;5096612;28;20209;-82
2023/08/31 12:33:16;;;;;;;2.00;1.77;;;24.70;50.00;;;;;;5093323;28;20644;-81
2023/08/31 12:35:42;;;;;;;2.92;1.77;;;24.60;49.90;;;;;;5093078;28;20243;-80
2023/08/31 12:38:10;;;;;;;2.30;1.95;;;24.60;50.00;;;;;;5093372;28;20594;-81
2023/08/31 12:40:38;;;;;;;2.53;1.83;;;24.60;49.80;;;;;;5093092;28;20713;-82
2023/08/31 12:43:05;;;;;;;2.40;1.80;;;24.60;50.00;;;;;;5093388;28;20262;-82
2023/08/31 12:45:34;;;;;;;2.10;1.90;;;24.60;50.00;;;;;;5093010;28;20198;-82
2023/08/31 12:48:01;;;;;;;2.67;1.98;;;24.60;50.00;;;;;;5093007;28;20546;-82
2023/08/31 12:50:28;;;;;;;2.83;1.85;;;24.50;50.00;;;;;;5093272;28;20218;-82
2023/08/31 12:52:55;;;;;;;2.00;1.80;;;24.50;50.00;;;;;;5092956;28;20194;-82
2023/08/31 12:55:22;;;;;;;2.40;1.70;;;24.50;50.00;;;;;;5092493;28;20263;-82